Thunder radar more information blitzortung!


Radar de pluja more information rain snow radar


Visita la nostra xarxa de llocs de meteo:

Template documentation
and downloads

And another site



No particular awareness of the weather is required.    There are no Weather-warnings

Pagina Historial Weather Underground text

Diari Resum May 4, 2016 Unitats:  Mètric    Imperial   Tant
« Previous Dia
SegĂźent Dia »
Diari Setmana Mensual Anual Personalitzada
  Maxima: Minima: Media:
Temperatura: 24.2 °C 9.2 °C 18.5 °C
Punt de rosada: 10.2 °C 4.0 °C 6.3 °C
Humitat: 83 % 29 % 48 %
Wind Speed: 27.8 km/h 0.0 km/h 8.2 km/h
RĂ fegues de vent: 27.8 km/h - -
Vent:- - SSW
Pression baro: 1022.9 hPa 1017.8 hPa -
Precipitacions: 0.0 mm    
Historical Graphs
 
 
Dades de taula per May 4, 2016
Temps Temperatura Punt de rosada Pression baro Vent Wind Speed RĂ fegues de vent Humitat Rainfall Rate (Hourly)
00:04 13.4 °C 8.8 °C 1022.9 hPa NE 4.2 km/h 4.2 km/h 74 % 0.0 mm
00:05 9.9 °C 6.6 °C 1021.9 hPa Calm     80 % 0.0 mm
00:15 9.7 °C 6.2 °C 1021.9 hPa Calm   3.2 km/h 79 % 0.0 mm
00:25 9.6 °C 6.1 °C 1021.9 hPa WSW 3.2 km/h 3.2 km/h 79 % 0.0 mm
00:35 9.6 °C 6.3 °C 1021.9 hPa Calm   3.2 km/h 80 % 0.0 mm
00:45 9.6 °C 6.7 °C 1021.9 hPa Calm     82 % 0.0 mm
00:55 9.5 °C 6.8 °C 1021.9 hPa Calm     83 % 0.0 mm
01:05 9.5 °C 6.8 °C 1021.9 hPa Calm     83 % 0.0 mm
01:15 9.6 °C 6.8 °C 1021.9 hPa Calm   3.2 km/h 83 % 0.0 mm
01:25 9.6 °C 6.7 °C 1021.9 hPa Calm   1.6 km/h 82 % 0.0 mm
01:35 9.5 °C 6.6 °C 1021.9 hPa Calm   1.6 km/h 82 % 0.0 mm
01:45 9.3 °C 6.2 °C 1021.9 hPa Calm   1.6 km/h 81 % 0.0 mm
01:55 9.2 °C 6.1 °C 1021.9 hPa WSW 1.6 km/h 1.6 km/h 81 % 0.0 mm
02:05 9.3 °C 6.4 °C 1021.9 hPa Calm   3.2 km/h 82 % 0.0 mm
02:15 9.5 °C 6.6 °C 1021.9 hPa Calm   3.2 km/h 82 % 0.0 mm
02:25 9.8 °C 7.1 °C 1021.9 hPa Calm   3.2 km/h 83 % 0.0 mm
02:35 10.0 °C 7.1 °C 1021.9 hPa Calm   3.2 km/h 82 % 0.0 mm
02:45 10.0 °C 6.7 °C 1021.9 hPa NE 3.2 km/h 3.2 km/h 80 % 0.0 mm
02:55 10.1 °C 6.8 °C 1021.9 hPa SW 1.6 km/h 3.2 km/h 80 % 0.0 mm
03:05 10.4 °C 7.1 °C 1021.9 hPa Calm   1.6 km/h 80 % 0.0 mm
03:15 10.7 °C 7.2 °C 1022.9 hPa SW 1.6 km/h 3.2 km/h 79 % 0.0 mm
03:25 11.7 °C 8.4 °C 1022.9 hPa SSW 3.2 km/h 3.2 km/h 80 % 0.0 mm
03:35 12.1 °C 8.6 °C 1022.9 hPa ENE 3.2 km/h 3.2 km/h 79 % 0.0 mm
03:45 12.4 °C 8.5 °C 1021.9 hPa Calm   4.8 km/h 77 % 0.0 mm
03:55 13.1 °C 8.9 °C 1021.9 hPa NE 3.2 km/h 3.2 km/h 76 % 0.0 mm
04:05 13.4 °C 9.1 °C 1021.9 hPa ENE 1.6 km/h 4.8 km/h 75 % 0.0 mm
04:15 14.1 °C 9.6 °C 1022.9 hPa East 1.6 km/h 4.8 km/h 74 % 0.0 mm
04:25 14.7 °C 9.9 °C 1021.9 hPa East 1.6 km/h 3.2 km/h 73 % 0.0 mm
04:35 14.9 °C 9.7 °C 1021.9 hPa ESE 1.6 km/h 3.2 km/h 71 % 0.0 mm
04:45 15.3 °C 10.1 °C 1021.9 hPa South 1.6 km/h 3.2 km/h 71 % 0.0 mm
04:55 15.9 °C 10.0 °C 1021.9 hPa SSW 3.2 km/h 3.2 km/h 68 % 0.0 mm
05:05 16.6 °C 10.0 °C 1021.9 hPa East 1.6 km/h 4.8 km/h 65 % 0.0 mm
05:10 16.6 °C 9.8 °C 1021.9 hPa East 1.6 km/h 4.8 km/h 64 % 0.0 mm
10:14 16.8 °C 9.9 °C 1021.9 hPa ENE 5.6 km/h 5.6 km/h 64 % 0.0 mm
10:19 17.3 °C 10.2 °C 1021.9 hPa ENE 5.6 km/h 5.6 km/h 63 % 0.0 mm
10:24 17.4 °C 10.1 °C 1021.9 hPa NE 6.4 km/h 6.4 km/h 62 % 0.0 mm
10:29 17.4 °C 9.8 °C 1021.9 hPa SE 5.6 km/h 5.6 km/h 61 % 0.0 mm
10:34 17.8 °C 9.9 °C 1021.9 hPa East 5.6 km/h 5.6 km/h 60 % 0.0 mm
10:44 18.1 °C 9.4 °C 1021.9 hPa NE 5.6 km/h 5.6 km/h 57 % 0.0 mm
10:49 18.2 °C 9.3 °C 1021.9 hPa East 3.9 km/h 3.9 km/h 56 % 0.0 mm
10:54 18.5 °C 9.6 °C 1021.9 hPa NE 3.7 km/h 3.7 km/h 56 % 0.0 mm
10:59 18.8 °C 9.6 °C 1021.9 hPa East 5.6 km/h 5.6 km/h 55 % 0.0 mm
11:04 19.0 °C 9.2 °C 1021.9 hPa SSE 2.3 km/h   53 % 0.0 mm
11:09 19.7 °C 9.8 °C 1021.9 hPa SW 3.7 km/h 3.7 km/h 53 % 0.0 mm
11:14 20.1 °C 9.7 °C 1021.9 hPa SW 9.3 km/h 9.3 km/h 51 % 0.0 mm
11:19 20.2 °C 8.8 °C 1021.9 hPa WNW 7.4 km/h 7.4 km/h 48 % 0.0 mm
11:24 20.6 °C 9.5 °C 1021.9 hPa SW 2.3 km/h   49 % 0.0 mm
11:29 20.8 °C 9.1 °C 1021.9 hPa SW 3.7 km/h 3.9 km/h 47 % 0.0 mm
11:34 21.0 °C 8.6 °C 1021.9 hPa SSW 9.3 km/h 9.3 km/h 45 % 0.0 mm
11:39 20.6 °C 7.2 °C 1021.9 hPa SW 7.4 km/h 7.4 km/h 42 % 0.0 mm
11:44 20.6 °C 6.9 °C 1021.9 hPa SSW 7.4 km/h 7.4 km/h 41 % 0.0 mm
11:49 21.2 °C 7.4 °C 1021.9 hPa SSE 6.1 km/h 6.1 km/h 41 % 0.0 mm
11:54 21.1 °C 6.6 °C 1020.9 hPa SSW 13.0 km/h 13.0 km/h 39 % 0.0 mm
11:59 21.0 °C 6.5 °C 1020.9 hPa SW 9.3 km/h 9.3 km/h 39 % 0.0 mm
12:09 21.2 °C 6.3 °C 1021.9 hPa SSW 7.4 km/h 7.4 km/h 38 % 0.0 mm
12:19 21.7 °C 5.9 °C 1021.9 hPa SSW 5.8 km/h 5.8 km/h 36 % 0.0 mm
12:24 21.9 °C 6.9 °C 1021.9 hPa WSW 5.8 km/h 5.8 km/h 38 % 0.0 mm
12:29 21.9 °C 5.3 °C 1021.9 hPa SW 11.1 km/h 11.1 km/h 34 % 0.0 mm
12:34 22.1 °C 5.1 °C 1021.9 hPa NW 11.1 km/h 11.1 km/h 33 % 0.0 mm
12:39 22.5 °C 6.7 °C 1020.9 hPa SW 3.7 km/h 3.7 km/h 36 % 0.0 mm
12:44 22.7 °C 6.0 °C 1020.9 hPa SW 7.4 km/h 7.4 km/h 34 % 0.0 mm
12:49 23.0 °C 6.3 °C 1020.9 hPa SW 5.6 km/h 5.6 km/h 34 % 0.0 mm
12:54 23.6 °C 6.8 °C 1020.9 hPa SSW 10.0 km/h 10.0 km/h 34 % 0.0 mm
12:59 23.1 °C 5.5 °C 1020.9 hPa WSW 13.0 km/h 13.0 km/h 32 % 0.0 mm
13:04 23.2 °C 5.1 °C 1020.9 hPa WSW 13.0 km/h 13.0 km/h 31 % 0.0 mm
13:09 23.4 °C 5.8 °C 1019.9 hPa SW 7.4 km/h 7.4 km/h 32 % 0.0 mm
13:14 23.3 °C 5.2 °C 1019.9 hPa SW 13.0 km/h 13.0 km/h 31 % 0.0 mm
13:19 23.3 °C 5.2 °C 1019.9 hPa WSW 13.0 km/h 13.0 km/h 31 % 0.0 mm
13:24 23.1 °C 4.6 °C 1019.9 hPa SSW 13.0 km/h 13.0 km/h 30 % 0.0 mm
13:29 23.4 °C 5.3 °C 1019.9 hPa SW 5.6 km/h 5.8 km/h 31 % 0.0 mm
13:34 23.7 °C 5.6 °C 1019.9 hPa South 5.6 km/h 6.1 km/h 31 % 0.0 mm
13:39 23.2 °C 4.7 °C 1018.8 hPa SSW 16.7 km/h 16.7 km/h 30 % 0.0 mm
13:44 23.5 °C 4.9 °C 1018.8 hPa SSE 16.7 km/h 16.7 km/h 30 % 0.0 mm
13:50 23.7 °C 5.6 °C 1018.8 hPa SSW 9.3 km/h 9.3 km/h 31 % 0.0 mm
13:55 23.6 °C 5.0 °C 1019.9 hPa SSW 11.1 km/h 11.1 km/h 30 % 0.0 mm
14:00 23.8 °C 5.2 °C 1019.9 hPa SSW 13.0 km/h 13.0 km/h 30 % 0.0 mm
14:05 23.7 °C 5.1 °C 1019.9 hPa WSW 9.3 km/h 9.3 km/h 30 % 0.0 mm
14:10 23.7 °C 5.1 °C 1019.9 hPa WSW 9.3 km/h 9.3 km/h 30 % 0.0 mm
14:15 23.4 °C 4.8 °C 1019.9 hPa SW 9.3 km/h 9.3 km/h 30 % 0.0 mm
14:20 23.4 °C 4.8 °C 1019.9 hPa WNW 9.3 km/h 9.3 km/h 30 % 0.0 mm
14:25 24.0 °C 5.3 °C 1019.9 hPa SSW 14.8 km/h 14.8 km/h 30 % 0.0 mm
14:30 23.8 °C 5.2 °C 1019.9 hPa WSW 9.3 km/h 9.3 km/h 30 % 0.0 mm
14:35 23.6 °C 5.0 °C 1019.9 hPa WSW 14.8 km/h 14.8 km/h 30 % 0.0 mm
14:40 23.6 °C 5.0 °C 1019.9 hPa WSW 16.7 km/h 16.7 km/h 30 % 0.0 mm
14:45 23.8 °C 5.2 °C 1019.9 hPa ESE 11.1 km/h 11.1 km/h 30 % 0.0 mm
14:50 23.7 °C 5.1 °C 1019.9 hPa SSE 14.8 km/h 14.8 km/h 30 % 0.0 mm
14:55 23.7 °C 5.1 °C 1019.9 hPa ESE 11.1 km/h 11.1 km/h 30 % 0.0 mm
15:00 23.9 °C 5.3 °C 1019.9 hPa SE 13.0 km/h 13.0 km/h 30 % 0.0 mm
15:05 24.2 °C 5.1 °C 1019.9 hPa SSW 13.0 km/h 13.0 km/h 29 % 0.0 mm
15:10 23.8 °C 4.7 °C 1019.9 hPa WSW 13.0 km/h 13.0 km/h 29 % 0.0 mm
15:15 23.7 °C 4.6 °C 1019.9 hPa WSW 14.8 km/h 14.8 km/h 29 % 0.0 mm
15:20 23.5 °C 4.4 °C 1019.9 hPa SW 16.7 km/h 16.7 km/h 29 % 0.0 mm
15:25 23.7 °C 4.6 °C 1019.9 hPa WSW 14.8 km/h 14.8 km/h 29 % 0.0 mm
15:30 23.4 °C 4.3 °C 1019.9 hPa SSW 14.8 km/h 14.8 km/h 29 % 0.0 mm
15:35 23.8 °C 4.7 °C 1019.9 hPa SW 13.0 km/h 13.0 km/h 29 % 0.0 mm
15:40 23.8 °C 5.2 °C 1018.8 hPa West 9.3 km/h 9.3 km/h 30 % 0.0 mm
15:45 23.4 °C 4.3 °C 1018.8 hPa SW 16.4 km/h 16.4 km/h 29 % 0.0 mm
15:50 23.3 °C 4.3 °C 1018.8 hPa SSW 14.8 km/h 14.8 km/h 29 % 0.0 mm
15:55 23.6 °C 4.5 °C 1018.8 hPa SW 13.0 km/h 13.0 km/h 29 % 0.0 mm
16:00 23.6 °C 4.5 °C 1018.8 hPa SW 22.2 km/h 22.2 km/h 29 % 0.0 mm
16:05 23.4 °C 4.3 °C 1018.8 hPa SW 11.1 km/h 11.1 km/h 29 % 0.0 mm
16:10 23.4 °C 4.3 °C 1018.8 hPa SSW 16.7 km/h 16.7 km/h 29 % 0.0 mm
16:15 23.4 °C 4.3 °C 1018.8 hPa WSW 13.0 km/h 13.0 km/h 29 % 0.0 mm
16:20 23.5 °C 4.4 °C 1018.8 hPa SW 14.8 km/h 14.8 km/h 29 % 0.0 mm
16:25 23.1 °C 4.1 °C 1018.8 hPa West 20.4 km/h 20.4 km/h 29 % 0.0 mm
16:30 23.1 °C 4.6 °C 1018.8 hPa WSW 27.8 km/h 27.8 km/h 30 % 0.0 mm
16:35 23.0 °C 4.0 °C 1018.8 hPa SW 15.1 km/h 15.1 km/h 29 % 0.0 mm
16:40 23.1 °C 4.6 °C 1018.8 hPa WSW 14.8 km/h 14.8 km/h 30 % 0.0 mm
16:45 23.0 °C 4.5 °C 1018.8 hPa SW 16.7 km/h 16.7 km/h 30 % 0.0 mm
16:50 23.2 °C 4.7 °C 1018.8 hPa SW 16.7 km/h 16.7 km/h 30 % 0.0 mm
16:55 22.9 °C 4.9 °C 1018.8 hPa WSW 16.7 km/h 16.7 km/h 31 % 0.0 mm
17:00 22.8 °C 4.8 °C 1018.8 hPa WSW 16.7 km/h 16.7 km/h 31 % 0.0 mm
17:05 22.7 °C 4.7 °C 1018.8 hPa SW 18.5 km/h 18.5 km/h 31 % 0.0 mm
17:10 22.4 °C 4.4 °C 1018.8 hPa SW 20.4 km/h 20.4 km/h 31 % 0.0 mm
17:15 22.1 °C 4.2 °C 1018.8 hPa SW 16.7 km/h 16.7 km/h 31 % 0.0 mm
17:20 22.1 °C 4.2 °C 1018.8 hPa SW 14.8 km/h 14.8 km/h 31 % 0.0 mm
17:25 22.0 °C 4.1 °C 1017.8 hPa WSW 16.7 km/h 16.7 km/h 31 % 0.0 mm
17:30 22.5 °C 4.5 °C 1017.8 hPa WSW 13.0 km/h 13.0 km/h 31 % 0.0 mm
17:35 22.4 °C 4.4 °C 1017.8 hPa SW 16.7 km/h 16.7 km/h 31 % 0.0 mm
17:45 22.3 °C 4.3 °C 1018.8 hPa SW 13.0 km/h 13.0 km/h 31 % 0.0 mm
17:50 21.9 °C 4.0 °C 1018.8 hPa SW 18.5 km/h 18.5 km/h 31 % 0.0 mm
17:55 22.4 °C 4.4 °C 1018.8 hPa SW 11.1 km/h 11.1 km/h 31 % 0.0 mm
18:00 22.0 °C 4.1 °C 1018.8 hPa SW 15.8 km/h 15.8 km/h 31 % 0.0 mm
18:05 21.9 °C 4.0 °C 1018.8 hPa SW 9.3 km/h 9.3 km/h 31 % 0.0 mm
18:10 22.3 °C 4.8 °C 1018.8 hPa SW 12.6 km/h 12.6 km/h 32 % 0.0 mm
18:15 21.9 °C 4.0 °C 1018.8 hPa SW 9.7 km/h 19.3 km/h 31 % 0.0 mm
18:20 21.8 °C 4.4 °C 1018.8 hPa SSW 7.4 km/h 7.9 km/h 32 % 0.0 mm
18:25 22.1 °C 4.6 °C 1018.5 hPa SW 8.0 km/h 14.5 km/h 32 % 0.0 mm
18:30 21.9 °C 4.9 °C 1017.8 hPa SSW 8.0 km/h 12.9 km/h 33 % 0.0 mm
18:35 21.5 °C 4.6 °C 1017.8 hPa WSW 13.0 km/h 13.0 km/h 33 % 0.0 mm
18:40 21.1 °C 4.2 °C 1018.8 hPa SSW 13.0 km/h 13.0 km/h 33 % 0.0 mm
18:45 21.0 °C 4.9 °C 1018.8 hPa SW 14.8 km/h 14.8 km/h 35 % 0.0 mm
18:50 21.0 °C 4.9 °C 1018.8 hPa SSW 11.1 km/h 11.1 km/h 35 % 0.0 mm
18:55 20.7 °C 5.1 °C 1018.8 hPa SW 20.4 km/h 20.4 km/h 36 % 0.0 mm
19:00 20.7 °C 5.1 °C 1018.8 hPa WSW 12.2 km/h 12.2 km/h 36 % 0.0 mm
19:05 20.4 °C 5.2 °C 1018.8 hPa SSW 14.8 km/h 14.8 km/h 37 % 0.0 mm
19:10 20.1 °C 4.9 °C 1018.8 hPa WSW 14.8 km/h 14.8 km/h 37 % 0.0 mm
19:15 20.1 °C 5.3 °C 1018.8 hPa SSW 14.8 km/h 14.8 km/h 38 % 0.0 mm
19:20 19.8 °C 5.4 °C 1018.8 hPa SW 16.7 km/h 16.7 km/h 39 % 0.0 mm
19:25 19.6 °C 5.6 °C 1018.8 hPa SW 14.8 km/h 14.8 km/h 40 % 0.0 mm
19:30 19.5 °C 5.6 °C 1018.8 hPa SW 13.0 km/h 13.0 km/h 40 % 0.0 mm
19:35 19.4 °C 5.8 °C 1018.8 hPa SW 11.9 km/h 11.9 km/h 41 % 0.0 mm
19:40 19.0 °C 5.8 °C 1018.8 hPa SSW 13.0 km/h 13.0 km/h 42 % 0.0 mm
19:45 19.0 °C 5.8 °C 1018.8 hPa SW 13.7 km/h 13.7 km/h 42 % 0.0 mm
19:50 18.8 °C 6.3 °C 1018.8 hPa SW 14.8 km/h 14.8 km/h 44 % 0.0 mm
19:55 18.6 °C 6.4 °C 1018.8 hPa SSW 9.3 km/h 9.3 km/h 45 % 0.0 mm
20:00 18.6 °C 6.4 °C 1018.8 hPa SW 13.7 km/h 13.7 km/h 45 % 0.0 mm
20:05 18.3 °C 6.2 °C 1018.8 hPa SW 16.7 km/h 16.7 km/h 45 % 0.0 mm
20:10 18.2 °C 6.4 °C 1018.8 hPa SW 9.7 km/h 9.7 km/h 46 % 0.0 mm
20:15 18.0 °C 6.5 °C 1018.8 hPa SSW 10.0 km/h 10.0 km/h 47 % 0.0 mm
20:20 17.7 °C 6.2 °C 1018.8 hPa SSW 7.4 km/h 7.9 km/h 47 % 0.0 mm
20:30 17.3 °C 6.5 °C 1018.8 hPa West 13.0 km/h 13.0 km/h 49 % 0.0 mm
20:35 17.2 °C 6.4 °C 1018.8 hPa SW 14.0 km/h 14.0 km/h 49 % 0.0 mm
20:40 16.9 °C 6.7 °C 1018.8 hPa WSW 13.0 km/h 13.0 km/h 51 % 0.0 mm
20:45 16.7 °C 6.8 °C 1018.8 hPa SW 11.1 km/h 11.1 km/h 52 % 0.0 mm
20:50 16.6 °C 6.7 °C 1018.8 hPa SSW 9.5 km/h 9.5 km/h 52 % 0.0 mm
20:55 16.4 °C 6.8 °C 1019.9 hPa WSW 9.3 km/h 9.3 km/h 53 % 0.0 mm
21:00 16.2 °C 6.6 °C 1019.9 hPa WSW 9.0 km/h 9.0 km/h 53 % 0.0 mm
21:05 16.1 °C 6.5 °C 1019.9 hPa West 6.4 km/h 6.4 km/h 53 % 0.0 mm
21:10 16.0 °C 6.7 °C 1018.8 hPa SW 5.6 km/h 5.6 km/h 54 % 0.0 mm
21:15 15.9 °C 6.6 °C 1018.8 hPa SE 1.9 km/h   54 % 0.0 mm
21:20 15.8 °C 6.5 °C 1018.8 hPa West 3.7 km/h 3.7 km/h 54 % 0.0 mm
21:25 15.6 °C 6.3 °C 1019.9 hPa WSW 2.6 km/h   54 % 0.0 mm
21:30 15.6 °C 6.6 °C 1019.9 hPa SW 1.9 km/h   55 % 0.0 mm
21:35 15.5 °C 6.5 °C 1019.9 hPa WNW 2.6 km/h 2.6 km/h 55 % 0.0 mm
21:40 15.4 °C 6.4 °C 1019.9 hPa North 2.3 km/h   55 % 0.0 mm
21:45 15.4 °C 6.4 °C 1019.9 hPa ENE 2.3 km/h 2.6 km/h 55 % 0.0 mm
21:50 15.4 °C 6.4 °C 1019.9 hPa ENE 2.3 km/h 2.3 km/h 55 % 0.0 mm
21:55 15.3 °C 6.6 °C 1019.9 hPa ENE 1.9 km/h   56 % 0.0 mm
22:00 15.3 °C 6.3 °C 1019.9 hPa ENE 1.4 km/h   55 % 0.0 mm
22:05 15.3 °C 6.3 °C 1019.9 hPa ENE 1.9 km/h   55 % 0.0 mm
22:10 15.3 °C 6.3 °C 1019.9 hPa ENE 3.7 km/h 3.7 km/h 55 % 0.0 mm
22:15 15.2 °C 6.5 °C 1019.9 hPa Calm     56 % 0.0 mm
22:20 15.1 °C 6.4 °C 1019.9 hPa Calm     56 % 0.0 mm
22:25 15.1 °C 6.6 °C 1019.9 hPa Calm   1.6 km/h 57 % 0.0 mm
22:30 15.0 °C 6.3 °C 1019.9 hPa ENE 2.6 km/h 2.6 km/h 56 % 0.0 mm
22:35 14.7 °C 6.3 °C 1019.9 hPa Calm     57 % 0.0 mm
22:40 14.7 °C 6.5 °C 1018.8 hPa Calm     58 % 0.0 mm
22:45 14.7 °C 6.8 °C 1018.8 hPa ENE 1.6 km/h 3.2 km/h 59 % 0.0 mm
22:50 14.8 °C 7.3 °C 1018.8 hPa ENE 3.7 km/h 3.7 km/h 61 % 0.0 mm
22:55 14.8 °C 7.6 °C 1019.9 hPa ENE 3.7 km/h 3.7 km/h 62 % 0.0 mm
23:00 14.7 °C 7.7 °C 1019.9 hPa Calm   3.2 km/h 63 % 0.0 mm
23:05 14.6 °C 7.2 °C 1019.9 hPa SSE 1.6 km/h 3.2 km/h 61 % 0.0 mm
23:10 14.5 °C 7.3 °C 1019.9 hPa WSW 1.9 km/h   62 % 0.0 mm
23:15 14.4 °C 7.4 °C 1019.9 hPa WSW 1.9 km/h   63 % 0.0 mm
23:20 14.4 °C 7.2 °C 1019.9 hPa West 2.3 km/h   62 % 0.0 mm
23:25 14.3 °C 6.9 °C 1019.9 hPa West 1.6 km/h 3.2 km/h 61 % 0.0 mm
23:30 10.0 °C 6.2 °C 1017.8 hPa SW 3.2 km/h 4.8 km/h 77 % 0.0 mm
23:35 14.0 °C 6.8 °C 1019.9 hPa SW 1.6 km/h 4.8 km/h 62 % 0.0 mm
23:40 13.9 °C 6.7 °C 1019.9 hPa WSW 3.2 km/h 4.8 km/h 62 % 0.0 mm
23:45 13.8 °C 6.9 °C 1019.9 hPa WSW 1.6 km/h 3.2 km/h 63 % 0.0 mm
23:50 13.7 °C 6.8 °C 1019.9 hPa WSW 3.2 km/h 4.8 km/h 63 % 0.0 mm
23:55 13.7 °C 7.0 °C 1019.9 hPa WSW 3.2 km/h 4.8 km/h 64 % 0.0 mm
Meteo Sesrovires
Elogis d' Weather Underground - 3.5 mb

Guio original per  Jim McMurry - jmcmurry@mwt.net Adaptat per a la plantilla per  Wim van der Kuil - Leuven-Template.eu

Trobareu la nostra informacio del temps tambe a:

Weather Underground

AWEKAS